Time;durP1;ratioP1;P1;durP2;ratioP2;P2;SDS_P1;SDS_P2;PMS_P1;PMS_P2;Temp;Humidity;BMP_temperature;BMP_pressure;BME280_temperature;BME280_humidity;BME280_pressure;Samples;Min_cycle;Max_cycle;Signal;HPM_P1;HPM_P2
2021/04/25 00:00:24;;;;;;;12.23;6.47;;;7.70;83.60;;;;;;5102747;28;20192;-75
2021/04/25 00:02:50;;;;;;;9.53;5.50;;;7.70;83.50;;;;;;5097308;28;20178;-75
2021/04/25 00:05:18;;;;;;;9.90;6.27;;;7.60;83.30;;;;;;5099223;28;20185;-75
2021/04/25 00:07:44;;;;;;;9.77;6.53;;;7.60;83.30;;;;;;5101746;28;20654;-74
2021/04/25 00:10:11;;;;;;;8.77;5.47;;;7.60;83.40;;;;;;5102604;28;20182;-74
2021/04/25 00:12:41;;;;;;;5.87;4.97;;;7.50;83.30;;;;;;5099255;28;20214;-73
2021/04/25 00:15:09;;;;;;;9.03;5.43;;;7.50;83.10;;;;;;5102473;28;20633;-72
2021/04/25 00:17:34;;;;;;;8.40;5.67;;;7.50;83.00;;;;;;5101256;28;20556;-73
2021/04/25 00:20:00;;;;;;;11.47;5.47;;;7.40;83.30;;;;;;5102159;28;20182;-73
2021/04/25 00:22:25;;;;;;;8.23;5.07;;;7.40;83.30;;;;;;5099421;28;20194;-73
2021/04/25 00:24:51;;;;;;;7.17;5.30;;;7.40;82.90;;;;;;5103792;28;20295;-72
2021/04/25 00:27:17;;;;;;;8.80;5.20;;;7.40;82.90;;;;;;5106647;28;20238;-72
2021/04/25 00:29:43;;;;;;;10.30;6.30;;;7.30;83.00;;;;;;5093704;28;20181;-73
2021/04/25 00:32:08;;;;;;;9.50;6.43;;;7.30;83.40;;;;;;5099339;28;20344;-73
2021/04/25 00:34:34;;;;;;;7.13;5.30;;;7.20;83.40;;;;;;5097251;28;20178;-74
2021/04/25 00:36:59;;;;;;;7.00;5.10;;;7.20;83.30;;;;;;5086681;28;20201;-73
2021/04/25 00:39:25;;;;;;;8.10;5.57;;;7.10;83.70;;;;;;5080300;28;20178;-74
2021/04/25 00:41:51;;;;;;;5.30;4.80;;;7.10;83.60;;;;;;5099514;28;20711;-73
2021/04/25 00:44:16;;;;;;;6.07;4.63;;;7.10;83.40;;;;;;5099462;28;20635;-74
2021/04/25 00:46:42;;;;;;;11.00;4.87;;;7.10;83.10;;;;;;5102337;28;20180;-74
2021/04/25 00:49:08;;;;;;;6.93;5.10;;;7.00;83.00;;;;;;5097818;28;20269;-74
2021/04/25 00:51:34;;;;;;;8.40;5.00;;;7.00;83.40;;;;;;5103896;28;20213;-74
2021/04/25 00:54:02;;;;;;;8.77;4.70;;;7.00;83.50;;;;;;5100192;28;20211;-74
2021/04/25 00:56:28;;;;;;;5.13;4.07;;;6.90;83.50;;;;;;5100060;28;20181;-74
2021/04/25 00:58:54;;;;;;;7.27;4.57;;;6.90;83.40;;;;;;5099003;28;20181;-74
2021/04/25 01:01:20;;;;;;;5.33;4.83;;;6.90;83.40;;;;;;5082298;28;20658;-74
2021/04/25 01:03:46;;;;;;;7.93;5.30;;;6.90;83.60;;;;;;5089658;28;20185;-73
2021/04/25 01:06:12;;;;;;;10.30;5.50;;;6.80;83.80;;;;;;5100483;28;20211;-73
2021/04/25 01:08:38;;;;;;;9.00;4.70;;;6.80;83.90;;;;;;5100302;28;20185;-74
2021/04/25 01:11:03;;;;;;;11.33;4.70;;;6.80;84.00;;;;;;5096465;28;20753;-73
2021/04/25 01:13:29;;;;;;;6.80;4.70;;;6.80;84.00;;;;;;5100690;28;20929;-74
2021/04/25 01:15:55;;;;;;;5.17;4.67;;;6.70;84.10;;;;;;5103472;28;20182;-74
2021/04/25 01:18:21;;;;;;;5.50;4.93;;;6.70;84.20;;;;;;5104201;28;20177;-74
2021/04/25 01:20:46;;;;;;;9.57;5.77;;;6.70;84.00;;;;;;5093220;28;20186;-73
2021/04/25 01:23:12;;;;;;;8.03;4.93;;;6.70;84.20;;;;;;5083481;28;20174;-73
2021/04/25 01:25:38;;;;;;;6.40;5.30;;;6.70;84.40;;;;;;5103657;28;20189;-73
2021/04/25 01:28:04;;;;;;;5.43;4.40;;;6.70;84.60;;;;;;5097624;28;20671;-73
2021/04/25 01:30:32;;;;;;;7.10;5.50;;;6.60;85.00;;;;;;5098563;28;20178;-74
2021/04/25 01:32:58;;;;;;;6.83;4.40;;;6.60;85.10;;;;;;5097414;28;20173;-74
2021/04/25 01:35:25;;;;;;;6.57;3.87;;;6.60;85.20;;;;;;5101631;28;20270;-73
2021/04/25 01:37:56;;;;;;;5.97;4.77;;;6.60;85.50;;;;;;5100411;28;20177;-74
2021/04/25 01:40:26;;;;;;;10.47;5.03;;;6.50;85.40;;;;;;5096508;28;20334;-74
2021/04/25 01:42:53;;;;;;;8.27;5.20;;;6.50;85.90;;;;;;5083149;28;20188;-73
2021/04/25 01:45:18;;;;;;;7.50;4.57;;;6.50;85.70;;;;;;5101707;28;20750;-74
2021/04/25 01:47:46;;;;;;;7.50;5.23;;;6.50;86.10;;;;;;5099731;28;20269;-74
2021/04/25 01:50:13;;;;;;;5.00;4.60;;;6.40;85.80;;;;;;5101524;28;20741;-74
2021/04/25 01:52:39;;;;;;;5.80;4.67;;;6.40;86.20;;;;;;5096057;28;20241;-73
2021/04/25 01:55:06;;;;;;;6.20;5.30;;;6.40;86.10;;;;;;5097185;28;20215;-74
2021/04/25 01:57:32;;;;;;;6.37;4.90;;;6.40;86.30;;;;;;5102988;28;20342;-73
2021/04/25 01:59:57;;;;;;;4.97;4.07;;;6.40;86.60;;;;;;5104505;28;20678;-74
2021/04/25 02:02:23;;;;;;;9.10;5.87;;;6.40;86.60;;;;;;5097019;28;20250;-74
2021/04/25 02:04:49;;;;;;;7.80;5.03;;;6.40;86.70;;;;;;5100045;28;20185;-74
2021/04/25 02:07:14;;;;;;;6.20;4.97;;;6.30;86.80;;;;;;5100368;28;20274;-74
2021/04/25 02:09:40;;;;;;;5.17;4.67;;;6.30;86.90;;;;;;5097316;28;20238;-74
2021/04/25 02:12:06;;;;;;;8.40;5.00;;;6.30;87.00;;;;;;5102551;28;20221;-74
2021/04/25 02:14:32;;;;;;;6.77;4.93;;;6.30;87.10;;;;;;5095041;28;20694;-74
2021/04/25 02:16:57;;;;;;;7.40;4.77;;;6.30;87.20;;;;;;5102984;28;20181;-73
2021/04/25 02:19:23;;;;;;;8.00;4.33;;;6.20;87.20;;;;;;5099096;28;20185;-73
2021/04/25 02:21:49;;;;;;;5.13;4.60;;;6.20;87.00;;;;;;5102872;28;20188;-73
2021/04/25 02:24:14;;;;;;;6.17;3.70;;;6.10;87.30;;;;;;5098600;28;20197;-73
2021/04/25 02:26:40;;;;;;;6.37;4.83;;;6.10;87.20;;;;;;5102050;28;20673;-73
2021/04/25 02:29:06;;;;;;;6.23;4.53;;;6.10;87.00;;;;;;5097264;28;20189;-73
2021/04/25 02:31:32;;;;;;;6.13;4.80;;;6.00;87.40;;;;;;5100890;28;20274;-72
2021/04/25 02:33:57;;;;;;;4.37;3.97;;;6.00;87.20;;;;;;5095098;28;20232;-73
2021/04/25 02:36:23;;;;;;;4.83;3.63;;;6.00;87.30;;;;;;5096118;28;20194;-74
2021/04/25 02:38:49;;;;;;;5.10;4.60;;;6.00;87.60;;;;;;5095160;28;20193;-74
2021/04/25 02:41:14;;;;;;;4.50;4.10;;;6.00;87.60;;;;;;5100985;28;20196;-74
2021/04/25 02:43:40;;;;;;;6.20;4.83;;;6.00;87.60;;;;;;5093109;28;20182;-73
2021/04/25 02:46:07;;;;;;;9.23;4.13;;;6.00;87.60;;;;;;5098210;28;20266;-73
2021/04/25 02:48:33;;;;;;;6.23;4.17;;;5.90;87.50;;;;;;5100500;28;20173;-74
2021/04/25 02:50:59;;;;;;;5.63;5.03;;;5.90;87.20;;;;;;5098350;28;20221;-74
2021/04/25 02:53:24;;;;;;;6.27;4.70;;;5.80;87.80;;;;;;5099006;28;20628;-73
2021/04/25 02:55:50;;;;;;;4.77;4.33;;;5.80;87.90;;;;;;5106221;28;20230;-73
2021/04/25 02:58:16;;;;;;;9.93;4.90;;;5.80;87.80;;;;;;5098748;28;20255;-73
2021/04/25 03:00:41;;;;;;;9.07;5.10;;;5.70;87.70;;;;;;5100054;28;20228;-73
2021/04/25 03:03:07;;;;;;;6.23;4.53;;;5.70;87.80;;;;;;5104134;28;20734;-73
2021/04/25 03:05:33;;;;;;;7.63;4.80;;;5.70;87.60;;;;;;5103925;28;20261;-74
2021/04/25 03:07:59;;;;;;;5.03;4.20;;;5.70;87.60;;;;;;5101878;28;20188;-74
2021/04/25 03:10:25;;;;;;;5.40;4.40;;;5.70;87.80;;;;;;5105259;28;20181;-73
2021/04/25 03:12:52;;;;;;;9.27;4.73;;;5.70;87.50;;;;;;5098212;28;20241;-74
2021/04/25 03:15:19;;;;;;;7.50;4.20;;;5.60;87.60;;;;;;5101091;28;20193;-74
2021/04/25 03:17:46;;;;;;;4.37;3.93;;;5.60;87.60;;;;;;5103303;28;20736;-74
2021/04/25 03:20:15;;;;;;;3.97;3.47;;;5.60;87.50;;;;;;5102574;28;20185;-74
2021/04/25 03:22:41;;;;;;;11.37;4.43;;;5.50;87.40;;;;;;5099939;28;20241;-74
2021/04/25 03:25:08;;;;;;;6.90;4.47;;;5.50;87.60;;;;;;5101273;28;20628;-73
2021/04/25 03:27:34;;;;;;;8.00;3.87;;;5.50;87.70;;;;;;5104452;28;20178;-73
2021/04/25 03:30:00;;;;;;;5.13;3.73;;;5.50;87.60;;;;;;5104047;28;20920;-73
2021/04/25 03:32:26;;;;;;;4.33;3.40;;;5.40;87.90;;;;;;5100716;28;20218;-73
2021/04/25 03:34:52;;;;;;;5.90;4.23;;;5.40;87.90;;;;;;5077981;28;20260;-74
2021/04/25 03:37:18;;;;;;;10.07;3.40;;;5.40;87.80;;;;;;5101275;28;20220;-74
2021/04/25 03:39:44;;;;;;;7.53;3.53;;;5.40;88.10;;;;;;5103690;28;20206;-73
2021/04/25 03:42:09;;;;;;;5.13;3.20;;;5.40;88.20;;;;;;5100195;28;20173;-75
2021/04/25 03:44:35;;;;;;;4.63;3.97;;;5.40;88.20;;;;;;5102382;28;20718;-74
2021/04/25 03:47:01;;;;;;;6.47;3.87;;;5.40;88.40;;;;;;5095856;28;20562;-74
2021/04/25 03:49:26;;;;;;;5.30;3.73;;;5.40;88.20;;;;;;5105051;28;20177;-74
2021/04/25 03:51:54;;;;;;;3.77;3.53;;;5.40;88.10;;;;;;5100431;28;20262;-74
2021/04/25 03:54:20;;;;;;;7.57;4.80;;;5.40;88.20;;;;;;5103443;28;20269;-73
2021/04/25 03:56:46;;;;;;;9.00;4.07;;;5.40;88.10;;;;;;5083393;28;20273;-74
2021/04/25 03:59:12;;;;;;;8.30;4.57;;;5.40;88.40;;;;;;5097111;28;20231;-74
2021/04/25 04:01:38;;;;;;;6.63;3.87;;;5.40;88.30;;;;;;5100820;28;20262;-73
2021/04/25 04:04:04;;;;;;;5.83;4.17;;;5.40;88.60;;;;;;5103930;28;20630;-73
2021/04/25 04:06:30;;;;;;;5.93;3.93;;;5.40;88.40;;;;;;5100172;28;20178;-73
2021/04/25 04:08:56;;;;;;;3.90;3.60;;;5.40;88.30;;;;;;5101629;28;20268;-73
2021/04/25 04:11:21;;;;;;;4.77;4.03;;;5.40;88.40;;;;;;5098292;28;20205;-73
2021/04/25 04:13:47;;;;;;;7.83;4.13;;;5.40;88.30;;;;;;5100804;28;20194;-72
2021/04/25 04:16:13;;;;;;;3.97;3.53;;;5.50;88.30;;;;;;5094235;28;20654;-73
2021/04/25 04:18:39;;;;;;;8.13;4.77;;;5.50;88.10;;;;;;5101685;28;20292;-74
2021/04/25 04:21:05;;;;;;;6.43;4.23;;;5.50;88.20;;;;;;5098760;28;20262;-73
2021/04/25 04:23:31;;;;;;;8.77;4.67;;;5.60;88.10;;;;;;5102236;28;20178;-73
2021/04/25 04:25:57;;;;;;;5.23;4.63;;;5.60;88.00;;;;;;5090472;28;20214;-73
2021/04/25 04:28:22;;;;;;;5.73;5.00;;;5.60;87.90;;;;;;5104950;28;20213;-73
2021/04/25 04:30:48;;;;;;;5.00;4.57;;;5.70;87.80;;;;;;5092450;28;20209;-74
2021/04/25 04:33:14;;;;;;;5.27;4.17;;;5.70;87.90;;;;;;5101782;28;20174;-74
2021/04/25 04:35:39;;;;;;;9.23;4.07;;;5.70;87.90;;;;;;5098627;28;20186;-73
2021/04/25 04:38:05;;;;;;;10.53;4.70;;;5.70;87.90;;;;;;5091592;28;20802;-74
2021/04/25 04:40:31;;;;;;;4.60;3.77;;;5.80;87.90;;;;;;5097131;28;20255;-74
2021/04/25 04:42:56;;;;;;;4.73;4.20;;;5.80;87.80;;;;;;5099956;28;20649;-73
2021/04/25 04:45:22;;;;;;;8.47;4.90;;;5.90;87.70;;;;;;5101413;28;20192;-75
2021/04/25 04:47:48;;;;;;;4.33;3.90;;;5.90;87.60;;;;;;5101647;28;20551;-75
2021/04/25 04:50:15;;;;;;;6.27;4.60;;;5.90;87.50;;;;;;5078458;28;20268;-74
2021/04/25 04:52:41;;;;;;;5.47;3.47;;;6.00;87.70;;;;;;5100479;28;20229;-75
2021/04/25 04:55:08;;;;;;;4.57;4.13;;;6.00;87.90;;;;;;5094515;28;20447;-74
2021/04/25 04:57:34;;;;;;;5.47;4.27;;;6.10;87.90;;;;;;5102640;28;20182;-75
2021/04/25 04:59:59;;;;;;;3.97;3.70;;;6.10;88.10;;;;;;5098479;28;20186;-75
2021/04/25 05:02:25;;;;;;;4.40;4.07;;;6.20;88.10;;;;;;5102838;28;20205;-75
2021/04/25 05:04:51;;;;;;;4.57;4.27;;;6.20;87.80;;;;;;5079330;28;20586;-75
2021/04/25 05:07:17;;;;;;;6.03;3.60;;;6.20;87.60;;;;;;5099191;28;20268;-75
2021/04/25 05:09:42;;;;;;;4.30;3.63;;;6.30;87.50;;;;;;5095737;28;20209;-74
2021/04/25 05:12:09;;;;;;;4.77;3.30;;;6.30;87.30;;;;;;5098060;28;20280;-74
2021/04/25 05:14:35;;;;;;;5.37;3.03;;;6.40;87.10;;;;;;5099741;28;20181;-74
2021/04/25 05:17:01;;;;;;;3.10;2.83;;;6.40;86.70;;;;;;5097337;28;20720;-73
2021/04/25 05:19:27;;;;;;;10.93;3.07;;;6.50;86.50;;;;;;5095884;28;20175;-74
2021/04/25 05:21:52;;;;;;;10.33;2.90;;;6.50;86.60;;;;;;5096579;28;20193;-74
2021/04/25 05:24:18;;;;;;;3.30;2.17;;;6.60;86.50;;;;;;5100672;28;20186;-74
2021/04/25 05:26:44;;;;;;;4.77;2.83;;;6.70;86.50;;;;;;5104565;28;20986;-75
2021/04/25 05:29:09;;;;;;;3.80;2.30;;;6.80;86.50;;;;;;5102691;28;20214;-75
2021/04/25 05:31:35;;;;;;;4.23;2.70;;;6.90;85.80;;;;;;5104062;28;20301;-73
2021/04/25 05:34:01;;;;;;;6.33;2.57;;;6.90;85.00;;;;;;5099481;28;20174;-74
2021/04/25 05:36:26;;;;;;;2.77;2.57;;;7.00;85.10;;;;;;5095827;28;20285;-74
2021/04/25 05:38:52;;;;;;;3.53;2.07;;;7.10;85.00;;;;;;5095147;28;20177;-74
2021/04/25 05:41:18;;;;;;;2.57;2.47;;;7.10;84.40;;;;;;5097167;28;20263;-71
2021/04/25 05:43:46;;;;;;;3.33;2.80;;;7.20;84.70;;;;;;5095125;28;20175;-73
2021/04/25 05:46:12;;;;;;;2.97;2.17;;;7.30;83.90;;;;;;5101156;28;20186;-73
2021/04/25 05:48:38;;;;;;;3.80;2.63;;;7.40;84.10;;;;;;5099918;28;20235;-73
2021/04/25 05:51:04;;;;;;;4.87;3.07;;;7.40;83.70;;;;;;5096697;28;20205;-73
2021/04/25 05:53:30;;;;;;;2.00;1.90;;;7.50;84.00;;;;;;5098136;28;20186;-73
2021/04/25 05:55:55;;;;;;;2.77;2.43;;;7.60;83.90;;;;;;5094969;28;20191;-73
2021/04/25 05:58:21;;;;;;;3.37;2.80;;;7.70;83.40;;;;;;5097859;28;20179;-75
2021/04/25 06:00:46;;;;;;;3.93;2.40;;;7.70;83.10;;;;;;5103735;28;20181;-74
2021/04/25 06:03:12;;;;;;;3.17;2.83;;;7.80;82.40;;;;;;5099330;28;20178;-75
2021/04/25 06:05:38;;;;;;;3.80;3.07;;;7.80;82.20;;;;;;5095776;28;20174;-73
2021/04/25 06:08:04;;;;;;;3.03;2.63;;;7.90;82.20;;;;;;5088501;28;20232;-75
2021/04/25 06:10:30;;;;;;;3.07;2.87;;;7.90;82.10;;;;;;5095897;28;20261;-75
2021/04/25 06:12:57;;;;;;;2.57;2.20;;;8.00;82.60;;;;;;5092221;28;20601;-75
2021/04/25 06:15:24;;;;;;;2.60;2.40;;;8.10;82.30;;;;;;5096040;28;20287;-74
2021/04/25 06:17:51;;;;;;;4.77;3.07;;;8.20;82.00;;;;;;5093787;28;20254;-74
2021/04/25 06:20:18;;;;;;;3.10;2.67;;;8.20;82.00;;;;;;5097041;28;20629;-74
2021/04/25 06:22:44;;;;;;;2.33;2.13;;;8.30;81.80;;;;;;5092337;28;20185;-76
2021/04/25 06:25:12;;;;;;;3.03;2.47;;;8.30;81.60;;;;;;5094890;28;20979;-73
2021/04/25 06:27:38;;;;;;;2.73;2.53;;;8.40;81.50;;;;;;5094481;28;20183;-75
2021/04/25 06:30:06;;;;;;;3.07;2.80;;;8.40;81.40;;;;;;5097051;28;20175;-74
2021/04/25 06:32:31;;;;;;;3.60;3.30;;;8.50;81.50;;;;;;5078641;28;20218;-75
2021/04/25 06:34:57;;;;;;;2.63;2.43;;;8.60;81.30;;;;;;5097913;28;20180;-74
2021/04/25 06:37:23;;;;;;;2.67;2.57;;;8.70;81.40;;;;;;5099261;28;20185;-74
2021/04/25 06:39:48;;;;;;;5.17;2.80;;;8.80;81.50;;;;;;5096299;28;20922;-74
2021/04/25 06:42:14;;;;;;;2.60;2.50;;;8.90;81.30;;;;;;5082608;28;20189;-74
2021/04/25 06:44:40;;;;;;;4.07;3.03;;;8.90;80.90;;;;;;5103896;28;20188;-73
2021/04/25 06:47:05;;;;;;;3.90;2.53;;;9.00;80.80;;;;;;5097249;28;20182;-73
2021/04/25 06:49:31;;;;;;;3.10;2.90;;;9.10;80.70;;;;;;5102059;28;20255;-73
2021/04/25 06:51:59;;;;;;;3.13;2.60;;;9.20;80.50;;;;;;5083770;28;20233;-75
2021/04/25 06:54:26;;;;;;;3.50;2.53;;;9.30;80.00;;;;;;5087569;28;20269;-73
2021/04/25 06:56:51;;;;;;;2.87;2.43;;;9.40;79.30;;;;;;5101021;28;20175;-73
2021/04/25 06:59:18;;;;;;;3.77;2.77;;;9.50;79.30;;;;;;5101377;28;20839;-73
2021/04/25 07:01:43;;;;;;;3.97;3.13;;;9.50;78.90;;;;;;5099596;28;20865;-75
2021/04/25 07:04:12;;;;;;;6.43;3.87;;;9.60;79.00;;;;;;5105840;28;20242;-74
2021/04/25 07:06:38;;;;;;;4.83;4.30;;;9.70;78.90;;;;;;5097725;28;20188;-75
2021/04/25 07:09:04;;;;;;;4.73;3.77;;;9.80;78.30;;;;;;5107101;28;20177;-73
2021/04/25 07:11:29;;;;;;;4.67;4.17;;;9.90;78.50;;;;;;5100061;28;20262;-74
2021/04/25 07:13:55;;;;;;;4.57;4.17;;;10.00;78.30;;;;;;5097924;28;20256;-71
2021/04/25 07:16:21;;;;;;;5.90;3.53;;;10.10;78.20;;;;;;5100267;28;20217;-71
2021/04/25 07:18:46;;;;;;;6.17;4.03;;;10.20;77.70;;;;;;5105251;28;20261;-73
2021/04/25 07:21:12;;;;;;;4.53;4.07;;;10.20;78.00;;;;;;5102882;28;20743;-73
2021/04/25 07:23:38;;;;;;;5.23;4.43;;;10.40;77.60;;;;;;5104941;28;20182;-75
2021/04/25 07:26:08;;;;;;;4.20;3.40;;;10.40;76.70;;;;;;5102635;28;20213;-74
2021/04/25 07:28:37;;;;;;;6.63;2.90;;;10.50;76.20;;;;;;5106943;28;20257;-74
2021/04/25 07:31:06;;;;;;;5.13;3.23;;;10.60;76.20;;;;;;5103496;28;20210;-74
2021/04/25 07:33:33;;;;;;;3.27;2.63;;;10.70;75.50;;;;;;5111240;28;20178;-75
2021/04/25 07:35:59;;;;;;;2.83;2.63;;;10.70;74.90;;;;;;5091853;28;20207;-76
2021/04/25 07:38:24;;;;;;;2.87;2.67;;;10.80;74.80;;;;;;5107949;28;20181;-77
2021/04/25 07:40:50;;;;;;;2.50;2.40;;;10.90;74.50;;;;;;5103806;28;20177;-75
2021/04/25 07:43:16;;;;;;;3.13;2.80;;;11.00;73.20;;;;;;5103604;28;20192;-76
2021/04/25 07:45:42;;;;;;;3.37;3.07;;;11.10;73.50;;;;;;5102799;28;20181;-77
2021/04/25 07:48:07;;;;;;;3.40;3.15;;;11.10;73.60;;;;;;5104144;28;20174;-76
2021/04/25 07:50:33;;;;;;;4.10;2.37;;;11.20;73.10;;;;;;5104811;28;20181;-76
2021/04/25 07:53:01;;;;;;;1.90;1.80;;;11.30;72.70;;;;;;5101299;28;20169;-76
2021/04/25 07:55:28;;;;;;;2.25;1.45;;;11.30;71.50;;;;;;5099586;28;20182;-77
2021/04/25 07:57:54;;;;;;;3.53;2.80;;;11.40;70.50;;;;;;5101865;28;20184;-76
2021/04/25 08:00:20;;;;;;;2.43;2.20;;;11.50;70.50;;;;;;5101966;28;20219;-76
2021/04/25 08:02:46;;;;;;;2.92;2.65;;;11.50;71.00;;;;;;5097309;28;20185;-77
2021/04/25 08:05:12;;;;;;;1.48;1.40;;;11.60;71.40;;;;;;5102839;28;20678;-77
2021/04/25 08:07:47;;;;;;;1.80;1.70;;;11.70;67.50;;;;;;5101820;28;20182;-76
2021/04/25 08:10:13;;;;;;;2.05;1.70;;;11.70;66.40;;;;;;5098274;28;20182;-78
2021/04/25 08:12:39;;;;;;;2.58;2.38;;;11.80;67.70;;;;;;5104475;28;20210;-78
2021/04/25 08:15:06;;;;;;;2.63;2.42;;;11.80;67.80;;;;;;5104801;28;20205;-77
2021/04/25 08:17:31;;;;;;;2.80;2.60;;;11.90;68.40;;;;;;5105456;28;20573;-77
2021/04/25 08:19:57;;;;;;;3.08;2.13;;;12.00;70.20;;;;;;5103059;28;20250;-77
2021/04/25 08:22:23;;;;;;;4.05;2.88;;;12.10;69.80;;;;;;5102612;28;20208;-77
2021/04/25 08:24:48;;;;;;;2.50;2.30;;;12.20;70.10;;;;;;5105682;28;20185;-77
2021/04/25 08:27:14;;;;;;;1.60;1.50;;;12.40;69.80;;;;;;5105376;28;20290;-77
2021/04/25 08:29:40;;;;;;;1.95;1.85;;;12.50;69.30;;;;;;5104936;28;20177;-77
2021/04/25 08:32:06;;;;;;;4.63;1.55;;;12.60;69.40;;;;;;5105598;28;20214;-77
2021/04/25 08:34:31;;;;;;;2.35;2.03;;;12.70;67.10;;;;;;5101194;28;20582;-78
2021/04/25 08:36:57;;;;;;;2.30;2.20;;;12.80;67.00;;;;;;5100895;28;20698;-77
2021/04/25 08:39:23;;;;;;;2.25;1.85;;;12.90;67.90;;;;;;5104661;28;20671;-77
2021/04/25 08:41:49;;;;;;;2.97;2.03;;;13.00;67.60;;;;;;5103018;28;20181;-77
2021/04/25 08:44:20;;;;;;;2.17;1.98;;;13.10;66.70;;;;;;5103771;28;20673;-77
2021/04/25 08:46:50;;;;;;;1.77;1.70;;;13.20;67.10;;;;;;5101331;28;20173;-78
2021/04/25 08:49:23;;;;;;;1.70;1.60;;;13.30;66.50;;;;;;5096770;28;20182;-78
2021/04/25 08:51:50;;;;;;;2.20;2.05;;;13.50;66.70;;;;;;5098230;28;20216;-75
2021/04/25 08:54:20;;;;;;;2.33;2.13;;;13.60;66.60;;;;;;5097144;28;20185;-77
2021/04/25 08:56:45;;;;;;;2.80;1.70;;;13.70;66.00;;;;;;5099891;28;20169;-78
2021/04/25 08:59:13;;;;;;;1.50;1.23;;;13.80;64.60;;;;;;5101654;28;20187;-76
2021/04/25 09:01:38;;;;;;;3.17;1.25;;;14.00;63.30;;;;;;5100141;28;20703;-75
2021/04/25 09:04:05;;;;;;;4.43;1.10;;;14.20;62.50;;;;;;5103212;28;20260;-74
2021/04/25 09:06:30;;;;;;;1.25;1.15;;;14.30;57.40;;;;;;5096938;28;20178;-75
2021/04/25 09:09:01;;;;;;;1.08;1.08;;;14.30;57.70;;;;;;5102185;28;20391;-75
2021/04/25 09:11:31;;;;;;;1.77;1.20;;;14.50;57.50;;;;;;5098811;28;20206;-77
2021/04/25 09:14:23;;;;;;;1.50;1.50;;;14.60;58.90;;;;;;5089527;28;20202;-76
2021/04/25 09:16:52;;;;;;;5.40;1.45;;;14.90;59.20;;;;;;5006066;28;20207;-76
2021/04/25 09:19:17;;;;;;;0.90;0.90;;;15.30;58.10;;;;;;5006962;28;20207;-78
2021/04/25 09:22:02;;;;;;;1.30;1.00;;;15.80;58.20;;;;;;4993395;28;20638;-76
2021/04/25 09:24:32;;;;;;;2.30;1.17;;;16.40;57.40;;;;;;5008964;28;20195;-78
2021/04/25 09:26:58;;;;;;;2.70;0.98;;;17.00;55.70;;;;;;5007070;28;20196;-73
2021/04/25 09:29:45;;;;;;;1.52;1.42;;;17.50;55.80;;;;;;5004278;28;20185;-75
2021/04/25 09:32:22;;;;;;;1.10;1.10;;;18.00;54.90;;;;;;5003882;28;20992;-75
2021/04/25 09:34:48;;;;;;;1.52;1.45;;;18.80;54.30;;;;;;5005766;28;20207;-75
2021/04/25 09:37:16;;;;;;;2.05;1.15;;;19.60;52.00;;;;;;5007091;28;20635;-76
2021/04/25 09:40:06;;;;;;;1.95;1.10;;;20.10;51.60;;;;;;5011037;28;20266;-74
2021/04/25 09:42:52;;;;;;;3.05;1.30;;;21.00;50.00;;;;;;5003838;28;20187;-74
2021/04/25 09:45:30;;;;;;;1.83;1.70;;;21.70;49.10;;;;;;5007116;28;20276;-74
2021/04/25 09:47:58;;;;;;;1.25;1.17;;;22.60;47.60;;;;;;5024040;28;20193;-75
2021/04/25 09:50:24;;;;;;;1.75;1.33;;;23.60;47.10;;;;;;5006098;28;20192;-74
2021/04/25 09:52:51;;;;;;;3.00;1.00;;;24.60;45.60;;;;;;5013334;28;20610;-74
2021/04/25 09:55:24;;;;;;;0.98;0.98;;;25.50;43.80;;;;;;5089008;28;20549;-74
2021/04/25 09:57:52;;;;;;;1.40;1.10;;;26.20;44.60;;;;;;5093308;28;20170;-74
2021/04/25 10:00:19;;;;;;;0.82;0.82;;;26.60;42.70;;;;;;5097195;28;20182;-74
2021/04/25 10:03:06;;;;;;;1.67;1.17;;;27.10;43.00;;;;;;5102350;28;20210;-74
2021/04/25 10:05:32;;;;;;;1.10;1.10;;;27.70;42.40;;;;;;5101878;28;20189;-73
2021/04/25 10:07:59;;;;;;;1.05;1.05;;;28.30;40.60;;;;;;5102664;28;20175;-74
2021/04/25 10:10:25;;;;;;;1.77;1.23;;;28.50;40.90;;;;;;5082302;28;20278;-73
2021/04/25 10:12:51;;;;;;;1.00;1.00;;;28.10;41.20;;;;;;5102519;28;20224;-75
2021/04/25 10:15:19;;;;;;;1.60;0.90;;;27.90;41.40;;;;;;5098437;28;20189;-74
2021/04/25 10:17:47;;;;;;;0.90;0.90;;;27.80;41.90;;;;;;5095837;28;20189;-75
2021/04/25 10:20:15;;;;;;;4.18;1.05;;;28.30;41.00;;;;;;5098702;28;20197;-75
2021/04/25 10:22:43;;;;;;;1.58;1.10;;;28.70;39.60;;;;;;5104449;28;20256;-77
2021/04/25 10:25:13;;;;;;;0.90;0.90;;;29.20;40.20;;;;;;5098280;28;20193;-74
2021/04/25 10:27:43;;;;;;;1.40;1.30;;;29.60;40.90;;;;;;5098978;28;20189;-73
2021/04/25 10:30:12;;;;;;;1.50;1.10;;;29.80;40.10;;;;;;5098372;28;20182;-74
2021/04/25 10:32:41;;;;;;;3.33;1.70;;;30.10;40.60;;;;;;5099558;28;20214;-75
2021/04/25 10:35:19;;;;;;;2.25;1.48;;;30.10;40.60;;;;;;5103242;28;20615;-76
2021/04/25 10:37:46;;;;;;;1.45;1.35;;;30.20;39.10;;;;;;5103956;28;20204;-75
2021/04/25 10:40:24;;;;;;;1.25;1.25;;;30.30;39.40;;;;;;5096233;28;20182;-76
2021/04/25 10:43:11;;;;;;;1.15;1.00;;;30.60;39.40;;;;;;5101562;28;20186;-76
2021/04/25 10:46:00;;;;;;;1.17;1.17;;;31.10;37.60;;;;;;5097802;28;20294;-76
2021/04/25 10:48:35;;;;;;;1.25;1.08;;;31.60;38.20;;;;;;5098049;28;20174;-75
2021/04/25 10:51:12;;;;;;;2.30;1.40;;;32.10;40.10;;;;;;5097519;28;20209;-75
2021/04/25 10:53:41;;;;;;;1.08;1.05;;;32.40;39.60;;;;;;5099180;28;20182;-75
2021/04/25 10:56:20;;;;;;;1.42;1.42;;;32.60;39.40;;;;;;5097951;28;20687;-76
2021/04/25 10:58:48;;;;;;;1.58;1.40;;;32.80;38.50;;;;;;5099985;28;20260;-78
2021/04/25 11:01:39;;;;;;;1.17;1.13;;;33.30;39.00;;;;;;5099988;28;20672;-74
2021/04/25 11:04:06;;;;;;;1.25;1.25;;;33.70;36.80;;;;;;5101069;28;20186;-75
2021/04/25 11:06:32;;;;;;;1.13;1.02;;;34.00;38.40;;;;;;5097558;28;20179;-75
2021/04/25 11:08:59;;;;;;;3.33;1.13;;;34.00;38.70;;;;;;5084970;28;20185;-75
2021/04/25 11:11:34;;;;;;;0.90;0.90;;;34.00;37.20;;;;;;5101468;28;20611;-76
2021/04/25 11:14:00;;;;;;;2.67;1.20;;;34.30;37.70;;;;;;5103210;28;20553;-75
2021/04/25 11:16:28;;;;;;;1.10;1.10;;;34.20;36.10;;;;;;5098391;28;20193;-75
2021/04/25 11:19:01;;;;;;;4.88;1.02;;;34.20;38.70;;;;;;5102625;28;20284;-77
2021/04/25 11:21:38;;;;;;;2.25;1.13;;;34.20;36.70;;;;;;5097054;28;20229;-76
2021/04/25 11:24:04;;;;;;;1.60;1.08;;;34.20;35.90;;;;;;5076617;28;20178;-77
2021/04/25 11:26:40;;;;;;;2.13;1.08;;;34.10;37.40;;;;;;5089619;28;20182;-75
2021/04/25 11:29:31;;;;;;;0.90;0.90;;;34.20;36.10;;;;;;5094058;28;20185;-80
2021/04/25 11:31:59;;;;;;;0.98;0.98;;;34.50;35.00;;;;;;5030274;28;20200;-80
2021/04/25 11:34:28;;;;;;;0.82;0.80;;;34.80;38.50;;;;;;5011657;28;20196;-77
2021/04/25 11:37:00;;;;;;;1.10;1.10;;;34.90;35.60;;;;;;5032090;28;20196;-78
2021/04/25 11:39:32;;;;;;;1.38;0.77;;;35.10;35.90;;;;;;5019153;28;20245;-80
2021/04/25 11:41:59;;;;;;;1.52;1.05;;;35.20;34.90;;;;;;5020010;28;20215;-79
2021/04/25 11:44:29;;;;;;;0.95;0.95;;;35.00;35.70;;;;;;5019954;28;20949;-78
2021/04/25 11:46:57;;;;;;;1.45;1.35;;;35.10;35.50;;;;;;5018778;28;20215;-77
2021/04/25 11:49:34;;;;;;;1.27;0.80;;;35.30;35.90;;;;;;5018177;28;20283;-76
2021/04/25 11:52:15;;;;;;;0.80;0.80;;;35.70;35.60;;;;;;5014100;28;20271;-78
2021/04/25 11:54:43;;;;;;;0.90;0.90;;;36.00;36.40;;;;;;5017584;28;20187;-78
2021/04/25 11:57:18;;;;;;;0.90;0.90;;;36.30;34.50;;;;;;5016614;28;20227;-78
2021/04/25 12:00:00;;;;;;;0.80;0.80;;;36.60;34.70;;;;;;5015293;28;20198;-80
2021/04/25 12:02:37;;;;;;;0.70;0.70;;;36.80;33.20;;;;;;5017264;28;20311;-78
2021/04/25 12:05:09;;;;;;;0.70;0.68;;;36.70;33.90;;;;;;5014586;28;20183;-77
2021/04/25 12:07:40;;;;;;;0.70;0.70;;;36.70;35.60;;;;;;5011826;28;20180;-79
2021/04/25 12:10:09;;;;;;;2.63;0.73;;;36.50;32.30;;;;;;5091885;28;20204;-79
2021/04/25 12:12:35;;;;;;;0.60;0.60;;;36.70;33.70;;;;;;5086806;28;20194;-76
2021/04/25 12:15:09;;;;;;;0.50;0.50;;;36.80;34.80;;;;;;5095564;28;20223;-78
2021/04/25 12:17:35;;;;;;;0.60;0.60;;;37.00;32.60;;;;;;5086755;28;20232;-75
2021/04/25 12:20:03;;;;;;;1.50;0.60;;;37.30;32.80;;;;;;5087299;28;20178;-76
2021/04/25 12:22:30;;;;;;;0.70;0.70;;;37.60;32.70;;;;;;5086780;28;20238;-76
2021/04/25 12:24:59;;;;;;;1.10;0.75;;;37.80;32.90;;;;;;5087810;28;20183;-77
2021/04/25 12:27:25;;;;;;;0.70;0.70;;;38.00;32.50;;;;;;5073303;28;20193;-77
2021/04/25 12:29:51;;;;;;;1.38;0.80;;;38.20;33.10;;;;;;5092534;28;20693;-74
2021/04/25 12:32:21;;;;;;;0.65;0.65;;;38.30;32.60;;;;;;5087540;28;20191;-77
2021/04/25 12:35:03;;;;;;;1.27;0.80;;;38.30;31.20;;;;;;5091640;28;20636;-77
2021/04/25 12:37:38;;;;;;;1.13;0.80;;;38.30;31.50;;;;;;5097334;28;20740;-77
2021/04/25 12:40:06;;;;;;;0.88;0.88;;;38.40;32.20;;;;;;5085762;28;20657;-77
2021/04/25 12:42:32;;;;;;;0.80;0.80;;;38.50;32.10;;;;;;5089646;28;20212;-76
2021/04/25 12:44:57;;;;;;;0.77;0.77;;;38.70;32.00;;;;;;5091922;28;20208;-77
2021/04/25 12:47:31;;;;;;;0.90;0.90;;;38.60;32.70;;;;;;5091208;28;20186;-78
2021/04/25 12:50:11;;;;;;;1.52;0.80;;;38.30;31.50;;;;;;5086608;28;20225;-78
2021/04/25 12:52:37;;;;;;;2.45;0.80;;;38.30;32.40;;;;;;5092833;28;22581;-76
2021/04/25 12:55:03;;;;;;;0.88;0.88;;;38.40;31.90;;;;;;5086521;28;20178;-78